createdAt,value
2022-08-16T00:00:29.120Z,0.00
2022-08-16T00:01:33.968Z,0.00
2022-08-16T00:02:29.136Z,0.00
2022-08-16T00:03:28.117Z,0.00
2022-08-16T00:04:28.049Z,0.00
2022-08-16T00:05:28.048Z,0.00
2022-08-16T00:06:29.037Z,0.00
2022-08-16T00:07:29.238Z,0.00
2022-08-16T00:08:35.995Z,0.00
2022-08-16T00:09:29.015Z,0.00
2022-08-16T00:10:28.638Z,0.00
2022-08-16T00:11:27.986Z,0.00
2022-08-16T00:12:27.970Z,0.00
2022-08-16T00:13:27.963Z,0.00
2022-08-16T00:14:29.205Z,0.00
2022-08-16T00:15:52.043Z,0.00
2022-08-16T00:17:05.330Z,0.00
2022-08-16T00:17:28.920Z,0.00
2022-08-16T00:18:29.801Z,0.00
2022-08-16T00:19:28.410Z,0.00
2022-08-16T00:20:28.904Z,0.00
2022-08-16T00:21:29.002Z,0.00
2022-08-16T00:22:28.103Z,0.00
2022-08-16T00:23:34.676Z,0.00
2022-08-16T00:24:31.288Z,0.00
2022-08-16T00:26:34.965Z,0.00
2022-08-16T00:26:36.370Z,0.00
2022-08-16T00:27:30.890Z,0.00
2022-08-16T00:28:28.632Z,0.00
2022-08-16T00:29:29.718Z,0.00
2022-08-16T00:30:29.154Z,0.00
2022-08-16T00:31:27.783Z,0.00
2022-08-16T00:32:32.956Z,0.00
2022-08-16T00:33:28.733Z,0.00
2022-08-16T00:34:52.184Z,0.00
2022-08-16T00:35:28.713Z,0.00
2022-08-16T00:36:27.703Z,0.00
2022-08-16T00:37:57.237Z,0.00
2022-08-16T00:38:40.825Z,0.00
2022-08-16T00:39:28.698Z,0.00
2022-08-16T00:40:34.120Z,0.00
2022-08-16T00:41:28.654Z,0.00
2022-08-16T00:42:30.702Z,0.00
2022-08-16T00:43:40.671Z,0.00
2022-08-16T00:44:32.595Z,0.00
2022-08-16T00:45:27.605Z,0.00
2022-08-16T00:46:34.299Z,0.00
2022-08-16T00:47:30.050Z,0.00
2022-08-16T00:48:30.450Z,0.00
2022-08-16T00:49:27.555Z,0.00
2022-08-16T00:50:35.809Z,0.00
2022-08-16T00:51:29.308Z,0.00
2022-08-16T00:52:30.259Z,0.00
2022-08-16T00:53:30.789Z,0.00
2022-08-16T00:54:27.526Z,0.00
2022-08-16T00:55:27.504Z,0.00
2022-08-16T00:56:57.741Z,0.00
2022-08-16T00:57:58.899Z,0.00
2022-08-16T00:58:34.359Z,0.00
2022-08-16T00:59:28.495Z,0.00
2022-08-16T01:00:27.588Z,0.00
2022-08-16T01:01:27.452Z,0.00
2022-08-16T01:02:31.220Z,0.00
2022-08-16T01:03:29.995Z,0.00
2022-08-16T01:04:30.125Z,0.00
2022-08-16T01:05:27.453Z,0.00
2022-08-16T01:06:32.674Z,0.00
2022-08-16T01:07:28.398Z,0.00
2022-08-16T01:08:36.083Z,0.00
2022-08-16T01:09:33.313Z,0.00
2022-08-16T01:10:32.392Z,0.00
2022-08-16T01:11:29.431Z,0.00
2022-08-16T01:12:27.309Z,0.00
2022-08-16T01:13:27.310Z,0.00
2022-08-16T01:14:30.066Z,0.00
2022-08-16T01:15:27.266Z,0.00
2022-08-16T01:16:28.345Z,0.00
2022-08-16T01:17:27.242Z,0.00
2022-08-16T01:18:39.936Z,0.00
2022-08-16T01:19:29.270Z,0.00
2022-08-16T01:20:30.442Z,0.00
2022-08-16T01:21:33.349Z,0.00
2022-08-16T01:22:47.377Z,0.00
2022-08-16T01:23:28.180Z,0.00
2022-08-16T01:24:52.687Z,0.00
2022-08-16T01:25:32.150Z,0.00
2022-08-16T01:26:33.589Z,0.00
2022-08-16T01:27:28.125Z,0.00
2022-08-16T01:28:30.875Z,0.00
2022-08-16T01:29:56.743Z,0.00
2022-08-16T01:30:28.089Z,0.00
2022-08-16T01:31:31.032Z,0.00
2022-08-16T01:32:31.632Z,0.00
2022-08-16T01:33:33.292Z,0.00
2022-08-16T01:34:28.050Z,0.00
2022-08-16T01:35:27.029Z,0.00
2022-08-16T01:36:27.029Z,0.00
2022-08-16T01:37:27.011Z,0.00
2022-08-16T01:38:28.353Z,0.00
2022-08-16T01:39:27.017Z,0.00
2022-08-16T01:40:26.982Z,0.00
2022-08-16T01:41:29.632Z,0.00
2022-08-16T01:42:26.950Z,0.00
2022-08-16T01:43:26.970Z,0.00
2022-08-16T01:44:26.929Z,0.00
2022-08-16T01:45:40.777Z,0.00
2022-08-16T01:46:37.791Z,0.00
2022-08-16T01:47:27.893Z,0.00
2022-08-16T01:48:27.554Z,0.00
2022-08-16T01:49:42.997Z,0.00
2022-08-16T01:51:05.058Z,0.00
2022-08-16T01:51:27.850Z,0.00
2022-08-16T01:52:29.301Z,0.00
2022-08-16T01:53:26.826Z,0.00
2022-08-16T01:54:30.909Z,0.00
2022-08-16T01:55:26.801Z,0.00
2022-08-16T01:56:27.792Z,0.00
2022-08-16T01:57:26.781Z,0.00
2022-08-16T01:58:26.769Z,0.00
2022-08-16T01:59:26.752Z,0.00
2022-08-16T02:00:28.820Z,0.00
2022-08-16T02:01:28.145Z,0.00
2022-08-16T02:02:28.446Z,0.00
2022-08-16T02:03:26.864Z,0.00
2022-08-16T02:04:49.648Z,0.00
2022-08-16T02:05:30.602Z,0.00
2022-08-16T02:06:34.436Z,0.00
2022-08-16T02:07:27.668Z,0.00
2022-08-16T02:08:33.768Z,0.00
2022-08-16T02:09:27.644Z,0.00
2022-08-16T02:10:27.697Z,0.00
2022-08-16T02:11:26.633Z,0.00
2022-08-16T02:12:49.981Z,0.00
2022-08-16T02:13:32.594Z,0.00
2022-08-16T02:14:27.618Z,0.00
2022-08-16T02:15:26.584Z,0.00
2022-08-16T02:16:26.602Z,0.00
2022-08-16T02:17:26.553Z,0.00
2022-08-16T02:18:26.534Z,0.00
2022-08-16T02:19:58.829Z,0.00
2022-08-16T02:20:27.942Z,0.00
2022-08-16T02:21:31.319Z,0.00
2022-08-16T02:22:34.871Z,0.00
2022-08-16T02:23:29.570Z,0.00
2022-08-16T02:24:32.529Z,0.00
2022-08-16T02:25:50.891Z,0.00
2022-08-16T02:26:27.444Z,0.00
2022-08-16T02:27:26.454Z,0.00
2022-08-16T02:28:26.852Z,0.00
2022-08-16T02:29:32.073Z,0.00
2022-08-16T02:30:37.171Z,0.00
2022-08-16T02:32:03.542Z,0.00
2022-08-16T02:32:49.903Z,0.00
2022-08-16T02:33:43.886Z,0.00
2022-08-16T02:34:32.735Z,0.00
2022-08-16T02:35:27.352Z,0.00
2022-08-16T02:36:48.009Z,0.00
2022-08-16T02:37:51.278Z,0.00
2022-08-16T02:38:27.326Z,0.00
2022-08-16T02:39:26.330Z,0.00
2022-08-16T02:40:26.283Z,0.00
2022-08-16T02:41:26.276Z,0.00
2022-08-16T02:42:26.262Z,0.00
2022-08-16T02:43:26.813Z,0.00
2022-08-16T02:44:27.059Z,0.00
2022-08-16T02:45:27.794Z,0.00
2022-08-16T02:46:29.893Z,0.00
2022-08-16T02:47:27.196Z,0.00
2022-08-16T02:48:29.580Z,0.00
2022-08-16T02:49:32.231Z,0.00
2022-08-16T02:50:55.332Z,0.00
2022-08-16T02:51:27.149Z,0.00
2022-08-16T02:52:29.367Z,0.00
2022-08-16T02:53:26.128Z,0.00
2022-08-16T02:54:26.137Z,0.00
2022-08-16T02:55:41.199Z,0.00
2022-08-16T02:56:32.315Z,0.00
2022-08-16T02:57:27.078Z,0.00
2022-08-16T02:58:26.076Z,0.00
2022-08-16T02:59:26.058Z,0.00
2022-08-16T03:00:34.149Z,0.00
2022-08-16T03:01:36.906Z,0.00
2022-08-16T03:02:31.791Z,0.00
2022-08-16T03:03:27.020Z,0.00
2022-08-16T03:04:46.235Z,0.00
2022-08-16T03:05:30.766Z,0.00
2022-08-16T03:06:38.883Z,0.00
2022-08-16T03:07:27.666Z,0.00
2022-08-16T03:08:52.152Z,0.00
2022-08-16T03:09:28.889Z,0.00
2022-08-16T03:10:33.498Z,0.00
2022-08-16T03:11:26.977Z,0.00
2022-08-16T03:12:30.013Z,0.00
2022-08-16T03:13:25.898Z,0.00
2022-08-16T03:14:25.889Z,0.00
2022-08-16T03:15:25.872Z,0.00
2022-08-16T03:16:37.718Z,0.00
2022-08-16T03:17:32.174Z,0.00
2022-08-16T03:18:34.506Z,0.00
2022-08-16T03:19:26.827Z,0.00
2022-08-16T03:20:32.295Z,0.00
2022-08-16T03:21:26.834Z,0.00
2022-08-16T03:22:27.958Z,0.00
2022-08-16T03:23:25.801Z,0.00
2022-08-16T03:24:28.900Z,0.00
2022-08-16T03:25:25.769Z,0.00
2022-08-16T03:26:26.750Z,0.00
2022-08-16T03:27:25.743Z,0.00
2022-08-16T03:28:26.750Z,0.00
2022-08-16T03:29:25.723Z,0.00
2022-08-16T03:30:25.718Z,0.00
2022-08-16T03:31:25.703Z,0.00
2022-08-16T03:32:26.684Z,0.00
2022-08-16T03:33:25.763Z,0.00
2022-08-16T03:34:25.682Z,0.00
2022-08-16T03:35:33.041Z,0.00
2022-08-16T03:36:30.895Z,0.00
2022-08-16T03:37:26.621Z,4.00
2022-08-16T03:38:33.638Z,4.00
2022-08-16T03:39:27.127Z,0.00
2022-08-16T03:40:32.894Z,4.00
2022-08-16T03:41:29.279Z,4.00
2022-08-16T03:42:26.570Z,4.00
2022-08-16T03:43:51.762Z,4.00
2022-08-16T03:44:44.157Z,4.00
2022-08-16T03:45:27.345Z,8.00
2022-08-16T03:46:47.282Z,8.00
2022-08-16T03:47:26.503Z,12.00
2022-08-16T03:48:36.918Z,8.00
2022-08-16T03:49:36.370Z,12.00
2022-08-16T03:50:26.764Z,16.00
2022-08-16T03:51:25.545Z,16.00
2022-08-16T03:52:31.501Z,20.00
2022-08-16T03:53:26.434Z,24.00
2022-08-16T03:54:28.451Z,32.00
2022-08-16T03:55:25.413Z,36.00
2022-08-16T03:56:26.423Z,36.00
2022-08-16T03:57:30.724Z,44.00
2022-08-16T03:58:26.385Z,52.00
2022-08-16T03:59:25.364Z,60.00
2022-08-16T04:00:36.194Z,68.00
2022-08-16T04:01:29.125Z,76.00
2022-08-16T04:02:31.646Z,88.00
2022-08-16T04:03:26.323Z,100.00
2022-08-16T04:04:33.584Z,112.00
2022-08-16T04:05:26.304Z,128.00
2022-08-16T04:06:25.293Z,140.00
2022-08-16T04:07:25.305Z,156.00
2022-08-16T04:08:27.124Z,172.00
2022-08-16T04:09:25.246Z,192.00
2022-08-16T04:10:37.120Z,212.00
2022-08-16T04:11:26.233Z,236.00
2022-08-16T04:12:53.904Z,256.00
2022-08-16T04:14:01.748Z,280.00
2022-08-16T04:14:31.057Z,304.00
2022-08-16T04:15:26.289Z,332.00
2022-08-16T04:16:27.521Z,360.00
2022-08-16T04:17:26.907Z,392.00
2022-08-16T04:18:25.156Z,424.00
2022-08-16T04:19:25.157Z,456.00
2022-08-16T04:21:35.036Z,532.00
2022-08-16T04:22:35.022Z,568.00
2022-08-16T04:23:35.021Z,608.00
2022-08-16T04:24:35.032Z,648.00
2022-08-16T04:25:34.992Z,688.00
2022-08-16T04:26:35.753Z,732.00
2022-08-16T04:27:34.973Z,776.00
2022-08-16T04:28:53.326Z,828.00
2022-08-16T04:29:46.029Z,876.00
2022-08-16T04:30:35.954Z,924.00
2022-08-16T04:31:34.928Z,976.00
2022-08-16T04:32:42.340Z,1028.00
2022-08-16T04:33:35.904Z,1080.00
2022-08-16T04:34:34.892Z,1136.00
2022-08-16T04:35:34.905Z,1192.00
2022-08-16T04:36:34.873Z,1248.00
2022-08-16T04:37:41.921Z,1304.00
2022-08-16T04:38:35.854Z,1368.00
2022-08-16T04:39:46.016Z,1428.00
2022-08-16T04:40:35.868Z,1492.00
2022-08-16T04:41:37.689Z,1556.00
2022-08-16T04:42:35.890Z,1620.00
2022-08-16T04:43:34.794Z,1688.00
2022-08-16T04:44:53.210Z,1760.00
2022-08-16T04:45:37.004Z,1832.00
2022-08-16T04:47:02.497Z,1900.00
2022-08-16T04:47:36.086Z,1964.00
2022-08-16T04:48:34.736Z,2032.00
2022-08-16T04:49:38.405Z,2092.00
2022-08-16T04:50:35.716Z,2156.00
2022-08-16T04:51:36.154Z,2220.00
2022-08-16T04:52:35.968Z,2288.00
2022-08-16T04:53:34.675Z,2360.00
2022-08-16T04:54:34.673Z,2432.00
2022-08-16T04:55:38.235Z,2500.00
2022-08-16T04:56:34.645Z,2560.00
2022-08-16T04:57:35.656Z,2624.00
2022-08-16T04:58:45.010Z,2684.00
2022-08-16T04:59:35.613Z,2752.00
2022-08-16T05:00:34.608Z,2820.00
2022-08-16T05:01:58.109Z,2884.00
2022-08-16T05:02:55.591Z,2944.00
2022-08-16T05:03:35.585Z,3012.00
2022-08-16T05:04:35.558Z,3072.00
2022-08-16T05:05:44.781Z,3140.00
2022-08-16T05:06:45.269Z,3216.00
2022-08-16T05:07:35.520Z,3292.00
2022-08-16T05:08:34.576Z,3352.00
2022-08-16T05:09:36.398Z,3420.00
2022-08-16T05:10:34.496Z,3488.00
2022-08-16T05:11:34.471Z,3548.00
2022-08-16T05:12:34.473Z,3616.00
2022-08-16T05:13:41.573Z,3692.00
2022-08-16T05:14:45.446Z,3764.00
2022-08-16T05:15:35.429Z,3836.00
2022-08-16T05:16:34.417Z,3896.00
2022-08-16T05:17:34.406Z,3960.00
2022-08-16T05:18:34.398Z,4020.00
2022-08-16T05:19:36.032Z,4088.00
2022-08-16T05:20:38.925Z,4172.00
2022-08-16T05:21:38.528Z,4252.00
2022-08-16T05:22:34.349Z,4332.00
2022-08-16T05:23:34.337Z,4416.00
2022-08-16T05:24:34.329Z,4500.00
2022-08-16T05:25:41.340Z,4572.00
2022-08-16T05:26:35.309Z,4656.00
2022-08-16T05:27:34.298Z,4740.00
2022-08-16T05:28:38.919Z,4840.00
2022-08-16T05:30:01.080Z,4936.00
2022-08-16T05:30:36.926Z,5052.00
2022-08-16T05:31:35.030Z,5152.00
2022-08-16T05:32:45.866Z,5252.00
2022-08-16T05:33:35.219Z,5344.00
2022-08-16T05:34:34.218Z,5484.00
2022-08-16T05:35:34.200Z,5648.00
2022-08-16T05:36:37.052Z,5808.00
2022-08-16T05:37:39.877Z,5972.00
2022-08-16T05:38:39.582Z,6124.00
2022-08-16T05:39:40.568Z,6272.00
2022-08-16T05:40:35.151Z,6424.00
2022-08-16T05:41:34.131Z,6548.00
2022-08-16T05:42:35.944Z,6688.00
2022-08-16T05:43:43.553Z,6844.00
2022-08-16T05:44:35.102Z,6996.00
2022-08-16T05:45:34.090Z,7152.00
2022-08-16T05:46:34.080Z,7332.00
2022-08-16T05:47:34.074Z,7516.00
2022-08-16T05:48:35.080Z,7720.00
2022-08-16T05:49:38.849Z,7956.00
2022-08-16T05:50:35.041Z,8192.00
2022-08-16T05:51:39.014Z,8476.00
2022-08-16T05:52:35.020Z,8764.00
2022-08-16T05:53:36.391Z,9056.00
2022-08-16T05:54:34.012Z,9360.00
2022-08-16T05:55:35.180Z,9644.00
2022-08-16T05:56:36.068Z,9984.00
2022-08-16T05:57:35.444Z,10352.00
2022-08-16T05:58:33.952Z,10748.00
2022-08-16T05:59:33.933Z,11164.00
2022-08-16T06:00:33.962Z,11616.00
2022-08-16T06:01:38.792Z,12128.00
2022-08-16T06:02:34.911Z,12612.00
2022-08-16T06:03:34.357Z,13204.00
2022-08-16T06:04:34.878Z,13952.00
2022-08-16T06:05:36.057Z,14716.00
2022-08-16T06:06:33.884Z,15496.00
2022-08-16T06:07:33.844Z,16340.00
2022-08-16T06:08:44.804Z,17280.00
2022-08-16T06:09:42.725Z,17920.00
2022-08-16T06:10:34.881Z,18432.00
2022-08-16T06:11:33.803Z,18784.00
2022-08-16T06:12:33.814Z,19104.00
2022-08-16T06:13:33.783Z,19264.00
2022-08-16T06:14:33.767Z,19712.00
2022-08-16T06:15:33.754Z,23328.00
2022-08-16T06:16:33.745Z,27072.00
2022-08-16T06:17:43.319Z,29184.00
2022-08-16T06:18:34.744Z,30144.00
2022-08-16T06:19:34.008Z,31296.00
2022-08-16T06:20:35.107Z,34592.00
2022-08-16T06:21:36.618Z,36192.00
2022-08-16T06:22:39.274Z,33568.00
2022-08-16T06:23:34.666Z,32128.00
2022-08-16T06:24:54.955Z,36320.00
2022-08-16T06:25:36.145Z,43648.00
2022-08-16T06:26:36.765Z,46624.00
2022-08-16T06:27:39.514Z,43264.00
2022-08-16T06:28:35.674Z,35776.00
2022-08-16T06:29:33.635Z,30080.00
2022-08-16T06:30:33.589Z,29152.00
2022-08-16T06:31:33.578Z,28704.00
2022-08-16T06:32:47.576Z,28064.00
2022-08-16T06:33:41.603Z,27584.00
2022-08-16T06:34:55.580Z,27424.00
2022-08-16T06:35:38.995Z,27264.00
2022-08-16T06:36:34.528Z,27328.00
2022-08-16T06:37:37.191Z,27328.00
2022-08-16T06:38:34.566Z,27552.00
2022-08-16T06:39:34.323Z,27776.00
2022-08-16T06:40:33.852Z,28032.00
2022-08-16T06:41:39.741Z,28864.00
2022-08-16T06:42:39.308Z,31776.00
2022-08-16T06:43:34.451Z,37024.00
2022-08-16T06:44:33.440Z,38976.00
2022-08-16T06:45:33.421Z,40512.00
2022-08-16T06:46:33.431Z,40416.00
2022-08-16T06:47:54.084Z,39168.00
2022-08-16T06:48:34.392Z,40384.00
2022-08-16T06:49:33.373Z,42208.00
2022-08-16T06:50:33.373Z,44288.00
2022-08-16T06:51:45.754Z,46208.00
2022-08-16T06:52:59.855Z,47296.00
2022-08-16T06:53:35.736Z,46400.00
2022-08-16T06:54:33.323Z,46016.00
2022-08-16T06:55:34.570Z,46336.00
2022-08-16T06:56:33.313Z,47168.00
2022-08-16T06:57:33.314Z,48192.00
2022-08-16T06:58:34.284Z,48480.00
2022-08-16T06:59:52.756Z,47872.00
2022-08-16T07:00:34.270Z,47968.00
2022-08-16T07:01:46.142Z,48960.00
2022-08-16T07:02:34.330Z,48960.00
2022-08-16T07:03:55.154Z,50976.00
2022-08-16T07:04:36.998Z,52672.00
2022-08-16T07:05:41.689Z,52064.00
2022-08-16T07:06:34.205Z,51776.00
2022-08-16T07:07:34.559Z,51552.00
2022-08-16T07:08:33.197Z,52576.00
2022-08-16T07:09:33.178Z,52224.00
2022-08-16T07:10:33.159Z,52096.00
2022-08-16T07:11:45.856Z,52320.00
2022-08-16T07:12:36.602Z,53248.00
2022-08-16T07:13:57.721Z,54944.00
2022-08-16T07:14:35.147Z,54016.00
2022-08-16T07:15:33.109Z,54176.00
2022-08-16T07:16:33.116Z,56768.00
2022-08-16T07:17:33.090Z,56448.00
2022-08-16T07:18:33.132Z,55392.00
2022-08-16T07:20:01.729Z,55168.00
2022-08-16T07:20:47.031Z,56128.00
2022-08-16T07:21:45.647Z,55456.00
2022-08-16T07:22:37.811Z,55232.00
2022-08-16T07:23:37.232Z,57088.00
2022-08-16T07:24:34.002Z,59872.00
2022-08-16T07:25:34.001Z,60544.00
2022-08-16T07:26:33.983Z,60992.00
2022-08-16T07:27:33.689Z,60480.00
2022-08-16T07:28:32.981Z,60192.00
2022-08-16T07:29:32.974Z,59808.00
2022-08-16T07:30:46.101Z,60416.00
2022-08-16T07:31:37.916Z,59168.00
2022-08-16T07:32:32.924Z,59616.00
2022-08-16T07:33:52.605Z,61152.00
2022-08-16T07:34:35.499Z,62112.00
2022-08-16T07:35:32.895Z,60832.00
2022-08-16T07:36:32.888Z,63296.00
2022-08-16T07:37:32.876Z,65312.00
2022-08-16T07:38:34.090Z,64288.00
2022-08-16T07:39:33.922Z,62464.00
2022-08-16T07:40:59.195Z,64320.00
2022-08-16T07:41:33.837Z,65408.00
2022-08-16T07:42:35.054Z,65504.00
2022-08-16T07:43:32.817Z,64576.00
2022-08-16T07:44:47.614Z,64384.00
2022-08-16T07:45:33.818Z,64128.00
2022-08-16T07:46:38.455Z,66592.00
2022-08-16T07:47:33.771Z,66400.00
2022-08-16T07:48:32.761Z,66400.00
2022-08-16T07:49:32.757Z,67584.00
2022-08-16T07:50:55.641Z,67968.00
2022-08-16T07:51:33.754Z,66144.00
2022-08-16T07:52:32.710Z,68448.00
2022-08-16T07:53:32.709Z,68960.00
2022-08-16T07:54:39.147Z,66784.00
2022-08-16T07:55:45.968Z,67232.00
2022-08-16T07:56:34.111Z,66752.00
2022-08-16T07:57:36.277Z,67168.00
2022-08-16T07:58:36.298Z,67616.00
2022-08-16T07:59:42.793Z,66912.00
2022-08-16T08:00:33.718Z,68864.00
2022-08-16T08:01:32.623Z,70720.00
2022-08-16T08:02:32.613Z,71904.00
2022-08-16T08:03:35.995Z,72000.00
2022-08-16T08:04:33.772Z,70496.00
2022-08-16T08:05:35.842Z,72320.00
2022-08-16T08:06:32.574Z,69280.00
2022-08-16T08:07:32.734Z,68512.00
2022-08-16T08:08:51.044Z,70048.00
2022-08-16T08:09:33.545Z,71360.00
2022-08-16T08:10:33.526Z,69824.00
2022-08-16T08:11:32.533Z,72256.00
2022-08-16T08:12:35.754Z,74944.00
2022-08-16T08:13:42.314Z,75744.00
2022-08-16T08:14:33.517Z,75552.00
2022-08-16T08:15:34.331Z,72576.00
2022-08-16T08:16:32.472Z,71616.00
2022-08-16T08:17:43.072Z,71616.00
2022-08-16T08:18:33.447Z,74208.00
2022-08-16T08:19:32.488Z,74240.00
2022-08-16T08:20:33.695Z,74816.00
2022-08-16T08:21:59.212Z,77440.00
2022-08-16T08:22:33.407Z,77088.00
2022-08-16T08:23:32.399Z,77888.00
2022-08-16T08:24:32.630Z,77632.00
2022-08-16T08:25:53.488Z,75968.00
2022-08-16T08:26:33.369Z,71648.00
2022-08-16T08:27:32.789Z,66240.00
2022-08-16T08:28:32.351Z,70400.00
2022-08-16T08:29:37.506Z,76128.00
2022-08-16T08:30:57.000Z,80672.00
2022-08-16T08:31:33.322Z,79424.00
2022-08-16T08:32:57.669Z,78176.00
2022-08-16T08:33:33.940Z,80416.00
2022-08-16T08:34:32.284Z,79648.00
2022-08-16T08:35:32.292Z,76928.00
2022-08-16T08:36:33.047Z,74752.00
2022-08-16T08:37:53.898Z,77696.00
2022-08-16T08:38:45.081Z,81216.00
2022-08-16T08:39:33.313Z,79136.00
2022-08-16T08:40:32.337Z,78240.00
2022-08-16T08:41:32.242Z,80704.00
2022-08-16T08:42:32.205Z,81120.00
2022-08-16T08:43:48.991Z,77920.00
2022-08-16T08:44:33.186Z,74688.00
2022-08-16T08:45:47.024Z,74816.00
2022-08-16T08:46:35.791Z,75424.00
2022-08-16T08:47:32.167Z,75904.00
2022-08-16T08:48:33.431Z,77152.00
2022-08-16T08:49:50.423Z,76480.00
2022-08-16T08:50:33.129Z,79232.00
2022-08-16T08:51:36.604Z,79840.00
2022-08-16T08:52:34.377Z,79616.00
2022-08-16T08:53:32.108Z,77024.00
2022-08-16T08:54:32.090Z,77216.00
2022-08-16T08:55:32.088Z,78272.00
2022-08-16T08:56:32.345Z,81984.00
2022-08-16T08:57:32.060Z,81440.00
2022-08-16T08:58:34.364Z,81760.00
2022-08-16T08:59:32.049Z,81216.00
2022-08-16T09:00:32.034Z,80608.00
2022-08-16T09:01:36.538Z,83808.00
2022-08-16T09:02:33.018Z,85248.00
2022-08-16T09:03:32.442Z,78336.00
2022-08-16T09:04:32.059Z,73056.00
2022-08-16T09:05:35.901Z,73952.00
2022-08-16T09:06:33.022Z,80896.00
2022-08-16T09:07:31.962Z,82944.00
2022-08-16T09:08:32.951Z,82912.00
2022-08-16T09:09:33.699Z,76416.00
2022-08-16T09:10:31.953Z,74656.00
2022-08-16T09:11:34.386Z,79360.00
2022-08-16T09:12:36.557Z,84032.00
2022-08-16T09:13:32.835Z,87552.00
2022-08-16T09:14:31.884Z,84992.00
2022-08-16T09:15:32.905Z,82816.00
2022-08-16T09:17:01.597Z,79872.00
2022-08-16T09:17:49.047Z,81280.00
2022-08-16T09:18:35.892Z,84640.00
2022-08-16T09:19:32.850Z,84320.00
2022-08-16T09:20:31.833Z,82432.00
2022-08-16T09:21:31.940Z,80192.00
2022-08-16T09:22:31.809Z,80608.00
2022-08-16T09:23:36.591Z,79584.00
2022-08-16T09:24:51.724Z,79936.00
2022-08-16T09:25:33.799Z,77184.00
2022-08-16T09:26:44.291Z,75456.00
2022-08-16T09:27:46.798Z,75040.00
2022-08-16T09:29:13.610Z,78048.00
2022-08-16T09:29:45.273Z,80000.00
2022-08-16T09:30:34.663Z,79488.00
2022-08-16T09:31:32.719Z,81344.00
2022-08-16T09:32:32.085Z,83520.00
2022-08-16T09:33:32.486Z,86400.00
2022-08-16T09:34:32.680Z,86880.00
2022-08-16T09:35:31.672Z,85344.00
2022-08-16T09:36:34.321Z,81568.00
2022-08-16T09:37:36.843Z,80384.00
2022-08-16T09:38:32.899Z,80960.00
2022-08-16T09:39:41.434Z,85600.00
2022-08-16T09:40:42.802Z,84864.00
2022-08-16T09:41:32.614Z,84928.00
2022-08-16T09:42:31.601Z,83104.00
2022-08-16T09:43:58.522Z,81152.00
2022-08-16T09:45:12.927Z,82816.00
2022-08-16T09:45:32.574Z,55072.00
2022-08-16T09:46:45.113Z,16584.00
2022-08-16T09:47:56.554Z,11744.00
2022-08-16T09:48:44.132Z,11260.00
2022-08-16T09:49:37.084Z,10752.00
2022-08-16T09:50:37.136Z,10456.00
2022-08-16T09:51:36.524Z,10356.00
2022-08-16T09:52:31.496Z,10468.00
2022-08-16T09:53:31.485Z,10196.00
2022-08-16T09:54:32.629Z,10000.00
2022-08-16T09:55:31.486Z,9924.00
2022-08-16T09:56:31.576Z,10120.00
2022-08-16T09:57:34.628Z,10432.00
2022-08-16T09:58:37.853Z,10728.00
2022-08-16T09:59:38.443Z,11116.00
2022-08-16T10:00:44.120Z,11068.00
2022-08-16T10:01:32.408Z,10804.00
2022-08-16T10:02:31.389Z,10676.00
2022-08-16T10:03:31.409Z,10452.00
2022-08-16T10:04:35.808Z,10080.00
2022-08-16T10:05:33.646Z,9736.00
2022-08-16T10:06:33.882Z,9704.00
2022-08-16T10:07:44.070Z,9740.00
2022-08-16T10:08:32.320Z,9704.00
2022-08-16T10:09:54.376Z,9580.00
2022-08-16T10:10:32.370Z,9436.00
2022-08-16T10:11:31.297Z,9416.00
2022-08-16T10:12:32.303Z,9360.00
2022-08-16T10:13:31.271Z,9320.00
2022-08-16T10:14:33.366Z,9332.00
2022-08-16T10:15:31.251Z,9412.00
2022-08-16T10:16:31.242Z,9432.00
2022-08-16T10:17:31.262Z,9480.00
2022-08-16T10:19:01.350Z,9688.00
2022-08-16T10:19:32.206Z,9820.00
2022-08-16T10:20:31.192Z,10096.00
2022-08-16T10:21:38.235Z,10564.00
2022-08-16T10:22:31.168Z,10900.00
2022-08-16T10:23:31.162Z,10740.00
2022-08-16T10:24:31.223Z,10392.00
2022-08-16T10:27:16.987Z,10312.00
2022-08-16T10:27:19.015Z,10360.00
2022-08-16T10:27:46.101Z,10236.00
2022-08-16T10:28:40.276Z,9976.00
2022-08-16T10:30:00.290Z,9568.00
2022-08-16T10:30:36.677Z,8644.00
2022-08-16T10:31:44.361Z,8660.00
2022-08-16T10:32:32.421Z,9384.00
2022-08-16T10:33:33.490Z,10668.00
2022-08-16T10:34:32.628Z,11672.00
2022-08-16T10:35:32.598Z,11024.00
2022-08-16T10:36:39.043Z,10828.00
2022-08-16T10:37:32.728Z,10432.00
2022-08-16T10:38:33.092Z,9708.00
2022-08-16T10:39:40.681Z,9312.00
2022-08-16T10:40:32.112Z,8740.00
2022-08-16T10:41:30.972Z,8312.00
2022-08-16T10:42:30.949Z,8260.00
2022-08-16T10:43:31.350Z,8268.00
2022-08-16T10:44:31.649Z,8388.00
2022-08-16T10:45:36.647Z,8492.00
2022-08-16T10:46:33.808Z,8392.00
2022-08-16T10:47:38.218Z,8348.00
2022-08-16T10:48:31.890Z,8336.00
2022-08-16T10:49:30.922Z,8008.00
2022-08-16T10:50:30.868Z,7740.00
2022-08-16T10:51:34.491Z,7492.00
2022-08-16T10:53:32.525Z,7364.00
2022-08-16T10:54:30.974Z,7440.00
2022-08-16T10:55:43.851Z,7564.00
2022-08-16T10:56:55.613Z,7652.00
2022-08-16T10:57:32.991Z,7532.00
2022-08-16T10:58:34.554Z,7316.00
2022-08-16T10:59:38.516Z,7120.00
2022-08-16T11:00:31.754Z,7080.00
2022-08-16T11:01:39.957Z,7088.00
2022-08-16T11:02:58.677Z,7184.00
2022-08-16T11:03:42.935Z,7284.00
2022-08-16T11:05:59.867Z,7212.00
2022-08-16T11:06:31.812Z,7068.00
2022-08-16T11:07:52.288Z,7492.00
2022-08-16T11:08:35.878Z,7880.00
2022-08-16T11:09:31.675Z,8272.00
2022-08-16T11:11:05.254Z,8108.00
2022-08-16T11:11:31.644Z,8232.00
2022-08-16T11:12:30.631Z,8436.00
2022-08-16T11:13:59.065Z,7896.00
2022-08-16T11:14:31.927Z,7368.00
2022-08-16T11:15:30.596Z,7480.00
2022-08-16T11:17:32.807Z,7908.00
2022-08-16T11:19:04.077Z,8156.00
2022-08-16T11:19:31.559Z,8052.00
2022-08-16T11:20:41.102Z,7988.00
2022-08-16T11:21:31.533Z,7908.00
2022-08-16T11:22:41.877Z,7504.00
2022-08-16T11:23:31.508Z,7248.00
2022-08-16T11:24:41.350Z,7060.00
2022-08-16T11:26:31.479Z,7064.00
2022-08-16T11:27:35.576Z,7116.00
2022-08-16T11:29:31.440Z,7684.00
2022-08-16T11:30:38.699Z,8000.00
2022-08-16T11:31:32.908Z,8632.00
2022-08-16T11:32:32.096Z,8740.00
2022-08-16T11:33:53.125Z,8788.00
2022-08-16T11:34:50.269Z,8228.00
2022-08-16T11:35:44.590Z,7552.00
2022-08-16T11:36:31.383Z,7224.00
2022-08-16T11:38:04.538Z,6952.00
2022-08-16T11:38:51.287Z,6692.00
2022-08-16T11:39:31.849Z,6536.00
2022-08-16T11:40:32.537Z,6508.00
2022-08-16T11:41:32.321Z,6576.00
2022-08-16T11:42:34.384Z,6692.00
2022-08-16T11:43:31.284Z,6860.00
2022-08-16T11:44:52.300Z,6980.00
2022-08-16T11:45:33.561Z,7068.00
2022-08-16T11:46:44.753Z,7080.00
2022-08-16T11:47:31.265Z,7020.00
2022-08-16T11:48:30.243Z,6960.00
2022-08-16T11:49:30.225Z,6972.00
2022-08-16T11:50:30.215Z,7028.00
2022-08-16T11:51:30.207Z,6896.00
2022-08-16T11:52:30.197Z,6780.00
2022-08-16T11:53:30.205Z,6764.00
2022-08-16T11:54:36.189Z,6952.00
2022-08-16T11:55:31.157Z,6972.00
2022-08-16T11:56:52.000Z,6764.00
2022-08-16T11:57:31.139Z,6740.00
2022-08-16T11:58:30.127Z,6764.00
2022-08-16T11:59:30.147Z,6744.00
2022-08-16T12:00:34.188Z,6688.00
2022-08-16T12:01:44.507Z,6636.00
2022-08-16T12:02:33.029Z,6556.00
2022-08-16T12:03:35.083Z,6432.00
2022-08-16T12:04:31.163Z,6332.00
2022-08-16T12:05:30.060Z,6316.00
2022-08-16T12:06:30.800Z,6352.00
2022-08-16T12:07:30.030Z,6412.00
2022-08-16T12:08:30.019Z,6628.00
2022-08-16T12:09:30.009Z,7016.00
2022-08-16T12:10:30.017Z,7148.00
2022-08-16T12:11:31.657Z,6984.00
2022-08-16T12:12:29.981Z,6716.00
2022-08-16T12:13:29.960Z,6604.00
2022-08-16T12:14:35.403Z,6336.00
2022-08-16T12:15:31.155Z,6212.00
2022-08-16T12:16:31.361Z,6176.00
2022-08-16T12:17:31.514Z,6112.00
2022-08-16T12:18:29.915Z,5976.00
2022-08-16T12:19:35.346Z,5928.00
2022-08-16T12:20:30.895Z,5960.00
2022-08-16T12:21:36.226Z,5996.00
2022-08-16T12:22:30.872Z,6068.00
2022-08-16T12:23:29.885Z,6220.00
2022-08-16T12:24:29.852Z,6648.00
2022-08-16T12:25:29.834Z,6836.00
2022-08-16T12:26:29.875Z,6984.00